createdAt,value
2017-12-30T00:00:03.369Z,929.1
2017-12-30T00:00:31.387Z,929.12
2017-12-30T00:00:59.453Z,929.1
2017-12-30T00:01:27.581Z,929.14
2017-12-30T00:01:55.505Z,929.13
2017-12-30T00:02:23.614Z,929.12
2017-12-30T00:02:51.506Z,929.13
2017-12-30T00:03:19.516Z,929.16
2017-12-30T00:03:47.648Z,929.12
2017-12-30T00:04:15.638Z,929.17
2017-12-30T00:04:43.643Z,929.18
2017-12-30T00:05:11.689Z,929.14
2017-12-30T00:05:39.725Z,929.2
2017-12-30T00:06:07.732Z,929.18
2017-12-30T00:06:35.774Z,929.19
2017-12-30T00:07:03.667Z,929.1
2017-12-30T00:07:31.760Z,929.23
2017-12-30T00:07:59.860Z,929.23
2017-12-30T00:08:27.690Z,929.23
2017-12-30T00:08:55.820Z,929.29
2017-12-30T00:09:23.939Z,929.26
2017-12-30T00:09:52.094Z,929.26
2017-12-30T00:10:20.128Z,929.31
2017-12-30T00:10:48.153Z,929.28
2017-12-30T00:11:16.129Z,929.33
2017-12-30T00:11:44.221Z,929.31
2017-12-30T00:12:12.298Z,929.33
2017-12-30T00:12:40.493Z,929.33
2017-12-30T00:13:08.505Z,929.36
2017-12-30T00:13:36.645Z,929.32
2017-12-30T00:14:04.622Z,929.34
2017-12-30T00:14:32.648Z,929.34
2017-12-30T00:15:00.641Z,929.37
2017-12-30T00:15:28.683Z,929.38
2017-12-30T00:15:56.709Z,929.38
2017-12-30T00:16:24.712Z,929.4
2017-12-30T00:16:52.797Z,929.44
2017-12-30T00:17:20.637Z,929.44
2017-12-30T00:17:48.544Z,929.43
2017-12-30T00:18:16.570Z,929.43
2017-12-30T00:18:44.777Z,929.45
2017-12-30T00:19:12.800Z,929.46
2017-12-30T00:19:40.978Z,929.42
2017-12-30T00:20:08.755Z,929.48
2017-12-30T00:20:36.880Z,929.44
2017-12-30T00:21:04.807Z,929.44
2017-12-30T00:21:32.717Z,929.44
2017-12-30T00:22:00.618Z,929.44
2017-12-30T00:22:28.553Z,929.43
2017-12-30T00:22:56.514Z,929.48
2017-12-30T00:23:24.519Z,929.46
2017-12-30T00:23:52.575Z,929.44
2017-12-30T00:24:20.476Z,929.49
2017-12-30T00:24:48.310Z,929.46
2017-12-30T00:25:16.498Z,929.49
2017-12-30T00:25:44.523Z,929.44
2017-12-30T00:26:12.606Z,929.48
2017-12-30T00:26:40.652Z,929.5
2017-12-30T00:27:08.819Z,929.49
2017-12-30T00:27:36.864Z,929.55
2017-12-30T00:28:04.951Z,929.56
2017-12-30T00:28:33.048Z,929.56
2017-12-30T00:29:01.112Z,929.58
2017-12-30T00:29:28.899Z,929.61
2017-12-30T00:29:57.060Z,929.6
2017-12-30T00:30:25.079Z,929.61
2017-12-30T00:30:53.221Z,929.59
2017-12-30T00:31:21.373Z,929.64
2017-12-30T00:31:49.506Z,929.6
2017-12-30T00:32:17.537Z,929.65
2017-12-30T00:32:45.495Z,929.63
2017-12-30T00:33:13.532Z,929.63
2017-12-30T00:33:41.590Z,929.65
2017-12-30T00:34:09.718Z,929.65
2017-12-30T00:34:37.677Z,929.67
2017-12-30T00:35:05.674Z,929.63
2017-12-30T00:35:33.817Z,929.64
2017-12-30T00:36:01.887Z,929.65
2017-12-30T00:36:29.708Z,929.64
2017-12-30T00:36:57.752Z,929.7
2017-12-30T00:37:25.698Z,929.64
2017-12-30T00:37:53.824Z,929.67
2017-12-30T00:38:21.788Z,929.69
2017-12-30T00:38:49.801Z,929.69
2017-12-30T00:39:17.910Z,929.69
2017-12-30T00:39:45.929Z,929.71
2017-12-30T00:40:13.925Z,929.7
2017-12-30T00:40:41.939Z,929.7
2017-12-30T00:41:09.991Z,929.69
2017-12-30T00:41:38.125Z,929.71
2017-12-30T00:42:06.025Z,929.71
2017-12-30T00:42:34.053Z,929.72
2017-12-30T00:43:02.009Z,929.73
2017-12-30T00:43:30.151Z,929.77
2017-12-30T00:43:58.230Z,929.75
2017-12-30T00:44:26.369Z,929.75
2017-12-30T00:44:54.425Z,929.79
2017-12-30T00:45:22.273Z,929.74
2017-12-30T00:45:50.254Z,929.76
2017-12-30T00:46:18.364Z,929.82
2017-12-30T00:46:46.408Z,929.73
2017-12-30T00:47:14.426Z,929.76
2017-12-30T00:47:42.456Z,929.76
2017-12-30T00:48:10.499Z,929.78
2017-12-30T00:48:38.445Z,929.77
2017-12-30T00:49:06.475Z,929.75
2017-12-30T00:49:34.455Z,929.77
2017-12-30T00:50:02.522Z,929.78
2017-12-30T00:50:30.351Z,929.79
2017-12-30T00:50:58.146Z,929.76
2017-12-30T00:51:26.064Z,929.76
2017-12-30T00:51:54.217Z,929.76
2017-12-30T00:52:22.011Z,929.77
2017-12-30T00:52:50.121Z,929.79
2017-12-30T00:53:18.248Z,929.76
2017-12-30T00:53:46.268Z,929.78
2017-12-30T00:54:14.406Z,929.78
2017-12-30T00:54:42.433Z,929.77
2017-12-30T00:55:10.458Z,929.79
2017-12-30T00:55:38.533Z,929.79
2017-12-30T00:56:06.564Z,929.8
2017-12-30T00:56:34.490Z,929.8
2017-12-30T00:57:02.670Z,929.77
2017-12-30T00:57:30.786Z,929.76
2017-12-30T00:57:58.884Z,929.78
2017-12-30T00:58:26.898Z,929.77
2017-12-30T00:58:54.837Z,929.69
2017-12-30T00:59:23.182Z,929.72
2017-12-30T00:59:51.290Z,929.72
2017-12-30T01:00:19.130Z,929.7
2017-12-30T01:00:47.044Z,929.67
2017-12-30T01:01:15.111Z,929.67
2017-12-30T01:01:43.177Z,929.7
2017-12-30T01:02:11.144Z,929.66
2017-12-30T01:02:39.194Z,929.69
2017-12-30T01:03:07.225Z,929.66
2017-12-30T01:03:35.237Z,929.67
2017-12-30T01:04:03.414Z,929.69
2017-12-30T01:04:31.468Z,929.69
2017-12-30T01:04:59.507Z,929.73
2017-12-30T01:05:27.667Z,929.71
2017-12-30T01:05:55.631Z,929.74
2017-12-30T01:06:23.765Z,929.74
2017-12-30T01:06:51.928Z,929.76
2017-12-30T01:07:19.980Z,929.73
2017-12-30T01:07:48.108Z,929.75
2017-12-30T01:08:16.119Z,929.75
2017-12-30T01:08:44.062Z,929.76
2017-12-30T01:09:12.148Z,929.77
2017-12-30T01:09:40.200Z,929.75
2017-12-30T01:10:08.152Z,929.72
2017-12-30T01:10:36.186Z,929.76
2017-12-30T01:11:03.989Z,929.74
2017-12-30T01:11:31.926Z,929.78
2017-12-30T01:11:59.924Z,929.77
2017-12-30T01:12:27.829Z,929.73
2017-12-30T01:12:55.872Z,929.72
2017-12-30T01:13:23.882Z,929.73
2017-12-30T01:13:51.793Z,929.74
2017-12-30T01:14:19.719Z,929.75
2017-12-30T01:14:47.741Z,929.75
2017-12-30T01:15:15.766Z,929.76
2017-12-30T01:15:43.859Z,929.77
2017-12-30T01:16:11.847Z,929.75
2017-12-30T01:16:39.656Z,929.73
2017-12-30T01:17:07.391Z,929.73
2017-12-30T01:17:35.223Z,929.73
2017-12-30T01:18:03.242Z,929.72
2017-12-30T01:18:31.254Z,929.72
2017-12-30T01:18:59.195Z,929.71
2017-12-30T01:19:27.342Z,929.7
2017-12-30T01:19:55.391Z,929.7
2017-12-30T01:20:23.420Z,929.72
2017-12-30T01:20:51.339Z,929.74
2017-12-30T01:21:19.164Z,929.74
2017-12-30T01:21:47.187Z,929.73
2017-12-30T01:22:16.114Z,929.73
2017-12-30T01:22:43.909Z,929.73
2017-12-30T01:23:11.975Z,929.69
2017-12-30T01:23:40.023Z,929.7
2017-12-30T01:24:08.040Z,929.72
2017-12-30T01:24:35.976Z,929.74
2017-12-30T01:25:04.122Z,929.73
2017-12-30T01:25:32.113Z,929.66
2017-12-30T01:26:00.206Z,929.69
2017-12-30T01:26:28.335Z,929.72
2017-12-30T01:26:56.451Z,929.65
2017-12-30T01:27:24.393Z,929.66
2017-12-30T01:27:52.397Z,929.7
2017-12-30T01:28:20.455Z,929.72
2017-12-30T01:28:48.581Z,929.69
2017-12-30T01:29:16.590Z,929.67
2017-12-30T01:29:44.739Z,929.66
2017-12-30T01:30:12.829Z,929.68
2017-12-30T01:30:40.976Z,929.67
2017-12-30T01:31:09.011Z,929.67
2017-12-30T01:31:37.052Z,929.68
2017-12-30T01:32:04.948Z,929.66
2017-12-30T01:32:32.987Z,929.69
2017-12-30T01:33:01.018Z,929.67
2017-12-30T01:33:29.168Z,929.69
2017-12-30T01:33:57.144Z,929.64
2017-12-30T01:34:25.381Z,929.63
2017-12-30T01:34:53.428Z,929.6
2017-12-30T01:35:21.386Z,929.63
2017-12-30T01:35:49.506Z,929.61
2017-12-30T01:36:17.611Z,929.62
2017-12-30T01:36:45.510Z,929.59
2017-12-30T01:37:13.470Z,929.58
2017-12-30T01:37:41.472Z,929.6
2017-12-30T01:38:09.448Z,929.56
2017-12-30T01:38:37.484Z,929.57
2017-12-30T01:39:05.493Z,929.53
2017-12-30T01:39:33.423Z,929.56
2017-12-30T01:40:01.274Z,929.57
2017-12-30T01:40:29.418Z,929.53
2017-12-30T01:40:57.520Z,929.52
2017-12-30T01:41:25.506Z,929.52
2017-12-30T01:41:53.598Z,929.54
2017-12-30T01:42:21.759Z,929.51
2017-12-30T01:42:49.770Z,929.47
2017-12-30T01:43:17.914Z,929.48
2017-12-30T01:43:45.852Z,929.49
2017-12-30T01:44:13.893Z,929.47
2017-12-30T01:44:41.827Z,929.45
2017-12-30T01:45:09.860Z,929.46
2017-12-30T01:45:37.940Z,929.44
2017-12-30T01:46:05.860Z,929.45
2017-12-30T01:46:33.869Z,929.4
2017-12-30T01:47:01.895Z,929.41
2017-12-30T01:47:29.919Z,929.44
2017-12-30T01:47:58.041Z,929.43
2017-12-30T01:48:26.205Z,929.41
2017-12-30T01:48:54.249Z,929.39
2017-12-30T01:49:22.405Z,929.33
2017-12-30T01:49:50.633Z,929.39
2017-12-30T01:50:18.559Z,929.33
2017-12-30T01:50:46.705Z,929.3
2017-12-30T01:51:14.839Z,929.27
2017-12-30T01:51:42.740Z,929.29
2017-12-30T01:52:10.830Z,929.29
2017-12-30T01:52:38.646Z,929.28
2017-12-30T01:53:06.814Z,929.24
2017-12-30T01:53:34.777Z,929.21
2017-12-30T01:54:02.741Z,929.24
2017-12-30T01:54:30.633Z,929.22
2017-12-30T01:54:58.688Z,929.24
2017-12-30T01:55:26.618Z,929.22
2017-12-30T01:55:54.624Z,929.22
2017-12-30T01:56:23.365Z,929.22
2017-12-30T01:56:51.345Z,929.22
2017-12-30T01:57:19.357Z,929.24
2017-12-30T01:57:47.273Z,929.24
2017-12-30T01:58:15.390Z,929.23
2017-12-30T01:58:43.465Z,929.19
2017-12-30T01:59:11.377Z,929.18
2017-12-30T01:59:39.670Z,929.22
2017-12-30T02:00:07.837Z,929.24
2017-12-30T02:00:35.848Z,929.23
2017-12-30T02:01:03.863Z,929.2
2017-12-30T02:01:31.865Z,929.18
2017-12-30T02:01:59.821Z,929.2
2017-12-30T02:02:27.862Z,929.2
2017-12-30T02:02:55.790Z,929.19
2017-12-30T02:03:23.732Z,929.23
2017-12-30T02:03:51.569Z,929.2
2017-12-30T02:04:19.715Z,929.21
2017-12-30T02:04:47.981Z,929.23
2017-12-30T02:05:15.907Z,929.2
2017-12-30T02:05:43.957Z,929.21
2017-12-30T02:06:11.896Z,929.22
2017-12-30T02:06:39.791Z,929.22
2017-12-30T02:07:07.857Z,929.2
2017-12-30T02:07:36.009Z,929.18
2017-12-30T02:08:04.179Z,929.2
2017-12-30T02:08:32.302Z,929.19
2017-12-30T02:09:00.417Z,929.17
2017-12-30T02:09:28.370Z,929.21
2017-12-30T02:09:56.667Z,929.2
2017-12-30T02:10:24.744Z,929.2
2017-12-30T02:10:52.880Z,929.14
2017-12-30T02:11:21.031Z,929.17
2017-12-30T02:11:49.071Z,929.19
2017-12-30T02:12:16.992Z,929.13
2017-12-30T02:12:45.053Z,929.15
2017-12-30T02:13:13.197Z,929.17
2017-12-30T02:13:41.327Z,929.15
2017-12-30T02:14:09.428Z,929.12
2017-12-30T02:14:37.553Z,929.17
2017-12-30T02:15:05.569Z,929.18
2017-12-30T02:15:33.395Z,929.19
2017-12-30T02:16:01.459Z,929.16
2017-12-30T02:16:29.527Z,929.12
2017-12-30T02:16:57.687Z,929.16
2017-12-30T02:17:25.704Z,929.17
2017-12-30T02:17:53.687Z,929.17
2017-12-30T02:18:21.603Z,929.15
2017-12-30T02:18:49.615Z,929.12
2017-12-30T02:19:17.568Z,929.14
2017-12-30T02:19:45.766Z,929.12
2017-12-30T02:20:13.792Z,929.15
2017-12-30T02:20:41.735Z,929.13
2017-12-30T02:21:09.853Z,929.14
2017-12-30T02:21:38.030Z,929.14
2017-12-30T02:22:06.080Z,929.13
2017-12-30T02:22:34.134Z,929.14
2017-12-30T02:23:02.068Z,929.08
2017-12-30T02:23:30.098Z,929.12
2017-12-30T02:23:58.025Z,929.11
2017-12-30T02:24:26.034Z,929.12
2017-12-30T02:24:54.495Z,929.09
2017-12-30T02:25:22.440Z,929.12
2017-12-30T02:25:50.580Z,929.1
2017-12-30T02:26:18.719Z,929.09
2017-12-30T02:26:46.813Z,929.09
2017-12-30T02:27:14.942Z,929.08
2017-12-30T02:27:42.886Z,929.09
2017-12-30T02:28:10.807Z,929.1
2017-12-30T02:28:38.835Z,929.09
2017-12-30T02:29:06.954Z,929.09
2017-12-30T02:29:34.866Z,929.15
2017-12-30T02:30:02.916Z,929.14
2017-12-30T02:30:31.035Z,929.16
2017-12-30T02:30:59.072Z,929.15
2017-12-30T02:31:27.195Z,929.15
2017-12-30T02:31:55.334Z,929.17
2017-12-30T02:32:23.508Z,929.18
2017-12-30T02:32:51.553Z,929.23
2017-12-30T02:33:19.627Z,929.16
2017-12-30T02:33:47.679Z,929.17
2017-12-30T02:34:15.838Z,929.19
2017-12-30T02:34:43.941Z,929.15
2017-12-30T02:35:12.054Z,929.2
2017-12-30T02:35:40.210Z,929.16
2017-12-30T02:36:08.355Z,929.16
2017-12-30T02:36:36.425Z,929.14
2017-12-30T02:37:04.407Z,929.15
2017-12-30T02:37:32.356Z,929.14
2017-12-30T02:38:00.459Z,929.13
2017-12-30T02:38:28.623Z,929.13
2017-12-30T02:38:56.801Z,929.14
2017-12-30T02:39:24.644Z,929.19
2017-12-30T02:39:52.621Z,929.18
2017-12-30T02:40:20.787Z,929.16
2017-12-30T02:40:48.778Z,929.21
2017-12-30T02:41:16.746Z,929.13
2017-12-30T02:41:44.815Z,929.17
2017-12-30T02:42:12.999Z,929.17
2017-12-30T02:42:41.141Z,929.16
2017-12-30T02:43:09.285Z,929.16
2017-12-30T02:43:37.425Z,929.17
2017-12-30T02:44:05.370Z,929.19
2017-12-30T02:44:33.387Z,929.17
2017-12-30T02:45:01.412Z,929.16
2017-12-30T02:45:29.563Z,929.15
2017-12-30T02:45:57.689Z,929.13
2017-12-30T02:46:25.589Z,929.16
2017-12-30T02:46:53.653Z,929.2
2017-12-30T02:47:21.492Z,929.16
2017-12-30T02:47:49.655Z,929.18
2017-12-30T02:48:17.771Z,929.23
2017-12-30T02:48:45.709Z,929.19
2017-12-30T02:49:13.612Z,929.19
2017-12-30T02:49:41.758Z,929.2
2017-12-30T02:50:09.853Z,929.2
2017-12-30T02:50:37.640Z,929.2
2017-12-30T02:51:05.737Z,929.24
2017-12-30T02:51:33.769Z,929.21
2017-12-30T02:52:01.878Z,929.21
2017-12-30T02:52:29.961Z,929.3
2017-12-30T02:52:58.086Z,929.3
2017-12-30T02:53:26.011Z,929.36
2017-12-30T02:53:54.157Z,929.38
2017-12-30T02:54:22.334Z,929.42
2017-12-30T02:54:50.405Z,929.47
2017-12-30T02:55:18.552Z,929.52
2017-12-30T02:55:46.683Z,929.58
2017-12-30T02:56:14.687Z,929.56
2017-12-30T02:56:42.786Z,929.59
2017-12-30T02:57:10.870Z,929.68
2017-12-30T02:57:38.875Z,929.7
2017-12-30T02:58:06.751Z,929.73
2017-12-30T02:58:34.826Z,929.72
2017-12-30T02:59:02.960Z,929.79
2017-12-30T02:59:31.030Z,929.83
2017-12-30T02:59:58.962Z,929.87
2017-12-30T03:00:27.091Z,929.96
2017-12-30T03:00:55.201Z,930
2017-12-30T03:01:23.293Z,930.02
2017-12-30T03:01:51.250Z,930.08
2017-12-30T03:02:19.214Z,930.12
2017-12-30T03:02:47.110Z,930.13
2017-12-30T03:03:15.045Z,930.15
2017-12-30T03:03:43.129Z,930.14
2017-12-30T03:04:11.059Z,930.13
2017-12-30T03:04:39.050Z,930.11
2017-12-30T03:05:07.227Z,930.13
2017-12-30T03:05:35.333Z,930.11
2017-12-30T03:06:03.447Z,930.15
2017-12-30T03:06:31.361Z,930.15
2017-12-30T03:06:59.470Z,930.15
2017-12-30T03:07:27.617Z,930.17
2017-12-30T03:07:55.759Z,930.19
2017-12-30T03:08:23.918Z,930.21
2017-12-30T03:08:51.959Z,930.18
2017-12-30T03:09:19.975Z,930.22
2017-12-30T03:09:47.946Z,930.21
2017-12-30T03:10:16.010Z,930.29
2017-12-30T03:10:44.006Z,930.2
2017-12-30T03:11:11.801Z,930.2
2017-12-30T03:11:39.918Z,930.12
2017-12-30T03:12:07.987Z,930.1
2017-12-30T03:12:36.108Z,930.19
2017-12-30T03:13:04.035Z,930.21
2017-12-30T03:13:32.151Z,930.26
2017-12-30T03:14:00.330Z,930.23
2017-12-30T03:14:28.145Z,930.23
2017-12-30T03:14:56.048Z,930.15
2017-12-30T03:15:24.088Z,930.21
2017-12-30T03:15:52.159Z,930.2
2017-12-30T03:16:20.249Z,930.2
2017-12-30T03:16:48.424Z,930.23
2017-12-30T03:17:16.549Z,930.26
2017-12-30T03:17:44.493Z,930.28
2017-12-30T03:18:12.497Z,930.3
2017-12-30T03:18:40.468Z,930.3
2017-12-30T03:19:08.269Z,930.33
2017-12-30T03:19:36.205Z,930.26
2017-12-30T03:20:04.213Z,930.28
2017-12-30T03:20:32.473Z,930.26
2017-12-30T03:21:00.475Z,930.24
2017-12-30T03:21:28.542Z,930.23
2017-12-30T03:21:56.644Z,930.22
2017-12-30T03:22:24.572Z,930.21
2017-12-30T03:22:52.522Z,930.19
2017-12-30T03:23:20.580Z,930.18
2017-12-30T03:23:48.426Z,930.2
2017-12-30T03:24:16.583Z,930.19
2017-12-30T03:24:44.744Z,930.15
2017-12-30T03:25:12.689Z,930.14
2017-12-30T03:25:40.669Z,930.2
2017-12-30T03:26:08.642Z,930.22
2017-12-30T03:26:36.708Z,930.24
2017-12-30T03:27:04.651Z,930.24
2017-12-30T03:27:32.788Z,930.28
2017-12-30T03:28:00.775Z,930.33
2017-12-30T03:28:28.876Z,930.28
2017-12-30T03:28:56.778Z,930.29
2017-12-30T03:29:24.917Z,930.25
2017-12-30T03:29:52.997Z,930.27
2017-12-30T03:30:20.996Z,930.27
2017-12-30T03:30:49.315Z,930.27
2017-12-30T03:31:17.364Z,930.28
2017-12-30T03:31:45.365Z,930.26
2017-12-30T03:32:13.317Z,930.29
2017-12-30T03:32:41.356Z,930.24
2017-12-30T03:33:09.301Z,930.29
2017-12-30T03:33:37.235Z,930.31
2017-12-30T03:34:05.290Z,930.31
2017-12-30T03:34:33.343Z,930.3
2017-12-30T03:35:01.450Z,930.33
2017-12-30T03:35:29.728Z,930.31
2017-12-30T03:35:57.731Z,930.31
2017-12-30T03:36:25.772Z,930.3
2017-12-30T03:36:53.921Z,930.33
2017-12-30T03:37:21.894Z,930.29
2017-12-30T03:37:49.910Z,930.32
2017-12-30T03:38:18.039Z,930.33
2017-12-30T03:38:45.970Z,930.35
2017-12-30T03:39:13.989Z,930.34
2017-12-30T03:39:42.110Z,930.34
2017-12-30T03:40:10.002Z,930.32
2017-12-30T03:40:38.234Z,930.37
2017-12-30T03:41:06.351Z,930.36
2017-12-30T03:41:34.311Z,930.35
2017-12-30T03:42:02.104Z,930.36
2017-12-30T03:42:30.059Z,930.3
2017-12-30T03:42:58.147Z,930.31
2017-12-30T03:43:26.217Z,930.33
2017-12-30T03:43:54.276Z,930.3
2017-12-30T03:44:22.401Z,930.31
2017-12-30T03:44:50.486Z,930.29
2017-12-30T03:45:18.628Z,930.26
2017-12-30T03:45:46.752Z,930.26
2017-12-30T03:46:14.840Z,930.25
2017-12-30T03:46:42.952Z,930.27
2017-12-30T03:47:10.881Z,930.25
2017-12-30T03:47:38.816Z,930.26
2017-12-30T03:48:06.753Z,930.28
2017-12-30T03:48:34.773Z,930.23
2017-12-30T03:49:02.827Z,930.26
2017-12-30T03:49:30.837Z,930.23
2017-12-30T03:49:58.922Z,930.26
2017-12-30T03:50:27.059Z,930.25
2017-12-30T03:50:55.189Z,930.23
2017-12-30T03:51:23.336Z,930.24
2017-12-30T03:51:51.222Z,930.24
2017-12-30T03:52:19.363Z,930.22
2017-12-30T03:52:47.382Z,930.21
2017-12-30T03:53:15.393Z,930.2
2017-12-30T03:53:43.415Z,930.15
2017-12-30T03:54:11.444Z,930.17
2017-12-30T03:54:39.576Z,930.16
2017-12-30T03:55:07.595Z,930.13
2017-12-30T03:55:35.754Z,930.17
2017-12-30T03:56:03.895Z,930.14
2017-12-30T03:56:32.017Z,930.1
2017-12-30T03:57:00.078Z,930.13
2017-12-30T03:57:28.123Z,930.08
2017-12-30T03:57:56.093Z,930.08
2017-12-30T03:58:23.924Z,930.06
2017-12-30T03:58:51.998Z,930.06
2017-12-30T03:59:20.757Z,930.08
2017-12-30T03:59:48.689Z,930
2017-12-30T04:00:16.720Z,930.04
2017-12-30T04:00:44.843Z,930.02
2017-12-30T04:01:12.984Z,930.02
2017-12-30T04:01:41.000Z,929.99
2017-12-30T04:02:09.081Z,929.98
2017-12-30T04:02:37.086Z,929.99
2017-12-30T04:03:05.040Z,929.96
2017-12-30T04:03:33.109Z,929.96
2017-12-30T04:04:01.273Z,929.91
2017-12-30T04:04:29.390Z,929.89
2017-12-30T04:04:57.347Z,929.91
2017-12-30T04:05:25.328Z,929.93
2017-12-30T04:05:53.356Z,929.89
2017-12-30T04:06:21.366Z,929.89
2017-12-30T04:06:49.392Z,929.91
2017-12-30T04:07:17.535Z,929.88
2017-12-30T04:07:45.443Z,929.88
2017-12-30T04:08:13.602Z,929.84
2017-12-30T04:08:41.631Z,929.85
2017-12-30T04:09:09.592Z,929.8
2017-12-30T04:09:37.412Z,929.79
2017-12-30T04:10:05.368Z,929.81
2017-12-30T04:10:33.499Z,929.83
2017-12-30T04:11:01.532Z,929.84
2017-12-30T04:11:29.514Z,929.84
2017-12-30T04:11:57.629Z,929.81
2017-12-30T04:12:25.670Z,929.8
2017-12-30T04:12:53.740Z,929.81
2017-12-30T04:13:21.774Z,929.84
2017-12-30T04:13:49.898Z,929.86
2017-12-30T04:14:18.070Z,929.85
2017-12-30T04:14:46.049Z,929.88
2017-12-30T04:15:14.140Z,929.92
2017-12-30T04:15:42.239Z,929.88
2017-12-30T04:16:10.249Z,929.9
2017-12-30T04:16:38.377Z,929.91
2017-12-30T04:17:06.402Z,929.94
2017-12-30T04:17:34.465Z,929.93
2017-12-30T04:18:02.586Z,929.92
2017-12-30T04:18:30.551Z,929.92
2017-12-30T04:18:58.740Z,929.96
2017-12-30T04:19:26.766Z,929.9
2017-12-30T04:19:54.877Z,929.89
2017-12-30T04:20:22.767Z,929.88
2017-12-30T04:20:50.674Z,929.94
2017-12-30T04:21:18.691Z,929.82
2017-12-30T04:21:46.855Z,929.8
2017-12-30T04:22:14.940Z,929.86
2017-12-30T04:22:42.874Z,929.85
2017-12-30T04:23:10.947Z,929.81
2017-12-30T04:23:38.765Z,929.78
2017-12-30T04:24:06.642Z,929.73
2017-12-30T04:24:34.557Z,929.71
2017-12-30T04:25:02.359Z,929.72
2017-12-30T04:25:30.226Z,929.71
2017-12-30T04:25:58.276Z,929.73
2017-12-30T04:26:26.327Z,929.71
2017-12-30T04:26:54.335Z,929.66
2017-12-30T04:27:22.257Z,929.67
2017-12-30T04:27:50.318Z,929.7
2017-12-30T04:28:18.240Z,929.64
2017-12-30T04:28:46.304Z,929.67
2017-12-30T04:29:14.304Z,929.64
2017-12-30T04:29:42.228Z,929.64
2017-12-30T04:30:10.269Z,929.62
2017-12-30T04:30:38.431Z,929.66
2017-12-30T04:31:06.750Z,929.66
2017-12-30T04:31:35.021Z,929.67
2017-12-30T04:32:03.408Z,929.62
2017-12-30T04:32:32.047Z,929.61
2017-12-30T04:33:00.528Z,929.67
2017-12-30T04:33:29.062Z,929.66
2017-12-30T04:33:57.596Z,929.66
2017-12-30T04:34:26.249Z,929.64
2017-12-30T04:34:54.746Z,929.64
2017-12-30T04:35:23.306Z,929.65
2017-12-30T04:35:51.905Z,929.64
2017-12-30T04:36:20.708Z,929.66
2017-12-30T04:36:49.367Z,929.68
2017-12-30T04:37:17.919Z,929.67
2017-12-30T04:37:46.403Z,929.61
2017-12-30T04:38:14.795Z,929.6
2017-12-30T04:38:43.390Z,929.6
2017-12-30T04:39:11.770Z,929.57
2017-12-30T04:39:40.186Z,929.56
2017-12-30T04:40:08.695Z,929.55
2017-12-30T04:40:37.214Z,929.56
2017-12-30T04:41:05.762Z,929.5
2017-12-30T04:41:34.328Z,929.48
2017-12-30T04:42:02.725Z,929.48
2017-12-30T04:42:31.154Z,929.51
2017-12-30T04:42:59.750Z,929.45
2017-12-30T04:43:28.367Z,929.51
2017-12-30T04:43:57.510Z,929.51
2017-12-30T04:44:25.909Z,929.46
2017-12-30T04:44:54.291Z,929.42
2017-12-30T04:45:22.857Z,929.44
2017-12-30T04:45:51.254Z,929.41
2017-12-30T04:46:19.787Z,929.41
2017-12-30T04:46:48.191Z,929.4
2017-12-30T04:47:16.507Z,929.41
2017-12-30T04:47:45.005Z,929.36
2017-12-30T04:48:13.565Z,929.41
2017-12-30T04:48:42.094Z,929.41
2017-12-30T04:49:10.589Z,929.42
2017-12-30T04:49:39.219Z,929.38
2017-12-30T04:50:07.704Z,929.38
2017-12-30T04:50:36.218Z,929.4
2017-12-30T04:51:04.802Z,929.43
2017-12-30T04:51:33.363Z,929.38
2017-12-30T04:52:02.005Z,929.38
2017-12-30T04:52:30.437Z,929.37
2017-12-30T04:52:59.028Z,929.35
2017-12-30T04:53:27.572Z,929.31
2017-12-30T04:53:56.084Z,929.3
2017-12-30T04:54:24.365Z,929.33
2017-12-30T04:54:52.879Z,929.32
2017-12-30T04:55:21.391Z,929.34
2017-12-30T04:55:49.885Z,929.31
2017-12-30T04:56:18.521Z,929.32
2017-12-30T04:56:47.153Z,929.31
2017-12-30T04:57:15.727Z,929.36
2017-12-30T04:57:44.173Z,929.3
2017-12-30T04:58:12.766Z,929.31
2017-12-30T04:58:41.276Z,929.33
2017-12-30T04:59:09.868Z,929.26
2017-12-30T04:59:38.349Z,929.29
2017-12-30T05:00:06.798Z,929.29
2017-12-30T05:00:35.353Z,929.29
2017-12-30T05:01:03.949Z,929.3
2017-12-30T05:01:32.769Z,929.34
2017-12-30T05:02:01.249Z,929.28
2017-12-30T05:02:29.850Z,929.24
2017-12-30T05:02:58.476Z,929.25
2017-12-30T05:03:26.900Z,929.27
2017-12-30T05:03:55.452Z,929.24
2017-12-30T05:04:24.121Z,929.23
2017-12-30T05:04:52.613Z,929.26
2017-12-30T05:05:21.131Z,929.24
2017-12-30T05:05:49.787Z,929.22
2017-12-30T05:06:18.339Z,929.16
2017-12-30T05:06:46.925Z,929.2
2017-12-30T05:07:15.461Z,929.2
2017-12-30T05:07:43.979Z,929.22
2017-12-30T05:08:12.495Z,929.25
2017-12-30T05:08:41.094Z,929.24
2017-12-30T05:09:09.604Z,929.2
2017-12-30T05:09:38.215Z,929.22
2017-12-30T05:10:06.794Z,929.18
2017-12-30T05:10:35.302Z,929.16
2017-12-30T05:11:03.717Z,929.17
2017-12-30T05:11:32.128Z,929.15
2017-12-30T05:12:00.725Z,929.18
2017-12-30T05:12:29.242Z,929.18
2017-12-30T05:12:57.747Z,929.17
2017-12-30T05:13:26.306Z,929.15
2017-12-30T05:13:54.822Z,929.18
2017-12-30T05:14:23.427Z,929.17
2017-12-30T05:14:52.003Z,929.16
2017-12-30T05:15:20.619Z,929.11
2017-12-30T05:15:49.223Z,929.16
2017-12-30T05:16:17.671Z,929.14
2017-12-30T05:16:46.136Z,929.13
2017-12-30T05:17:14.748Z,929.14
2017-12-30T05:17:43.417Z,929.11
2017-12-30T05:18:11.804Z,929.11
2017-12-30T05:18:40.325Z,929.12
2017-12-30T05:19:08.977Z,929.11
2017-12-30T05:19:37.397Z,929.11
2017-12-30T05:20:05.996Z,929.12
2017-12-30T05:20:34.609Z,929.13
2017-12-30T05:21:03.103Z,929.14
2017-12-30T05:21:31.801Z,929.09
2017-12-30T05:22:00.252Z,929.1
2017-12-30T05:22:28.541Z,929.07
2017-12-30T05:22:57.205Z,929.08
2017-12-30T05:23:25.711Z,929.06
2017-12-30T05:23:54.298Z,929.09
2017-12-30T05:24:22.613Z,929.08
2017-12-30T05:24:51.103Z,929.06
2017-12-30T05:25:19.591Z,929.04
2017-12-30T05:25:48.056Z,929.06
2017-12-30T05:26:16.589Z,929.04
2017-12-30T05:26:45.208Z,929.07
2017-12-30T05:27:13.599Z,929.04
2017-12-30T05:27:42.115Z,929.05
2017-12-30T05:28:10.706Z,929.05
2017-12-30T05:28:39.377Z,929.04
2017-12-30T05:29:07.936Z,929.05
2017-12-30T05:29:36.455Z,929.05
2017-12-30T05:30:05.031Z,929.03
2017-12-30T05:30:33.619Z,929
2017-12-30T05:31:02.127Z,928.99
2017-12-30T05:31:30.799Z,929
2017-12-30T05:31:59.432Z,929
2017-12-30T05:32:28.058Z,929.03
2017-12-30T05:32:56.433Z,929.04
2017-12-30T05:33:25.065Z,929.04
2017-12-30T05:33:53.679Z,929.02
2017-12-30T05:34:22.197Z,929.02
2017-12-30T05:34:50.784Z,929.01
2017-12-30T05:35:19.217Z,929
2017-12-30T05:35:47.843Z,929.02
2017-12-30T05:36:16.380Z,929.04
2017-12-30T05:36:45.161Z,929.07
2017-12-30T05:37:13.731Z,929.05
2017-12-30T05:37:42.357Z,929.11
2017-12-30T05:38:10.835Z,929.1
2017-12-30T05:38:39.478Z,929.12
2017-12-30T05:39:08.114Z,929.15
2017-12-30T05:39:36.610Z,929.12
2017-12-30T05:40:05.161Z,929.13
2017-12-30T05:40:33.771Z,929.13
2017-12-30T05:41:02.167Z,929.13
2017-12-30T05:41:30.723Z,929.11
2017-12-30T05:41:59.344Z,929.14
2017-12-30T05:42:27.904Z,929.14
2017-12-30T05:42:56.500Z,929.14
2017-12-30T05:43:24.982Z,929.15
2017-12-30T05:43:53.442Z,929.09
2017-12-30T05:44:22.039Z,929.16
2017-12-30T05:44:50.524Z,929.11
2017-12-30T05:45:18.841Z,929.11
2017-12-30T05:45:47.500Z,929.13
2017-12-30T05:46:16.031Z,929.13
2017-12-30T05:46:44.412Z,929.12
2017-12-30T05:47:12.814Z,929.15
2017-12-30T05:47:41.326Z,929.12
2017-12-30T05:48:09.836Z,929.09
2017-12-30T05:48:38.357Z,929.13
2017-12-30T05:49:06.840Z,929.09
2017-12-30T05:49:35.399Z,929.09
2017-12-30T05:50:03.985Z,929.07
2017-12-30T05:50:32.469Z,929.06
2017-12-30T05:51:00.986Z,929.06
2017-12-30T05:51:29.417Z,929.11
2017-12-30T05:51:58.122Z,929.11
2017-12-30T05:52:26.488Z,929.09